createdAt,value
2019-04-27T00:01:13.786Z,8.60
2019-04-27T00:03:56.678Z,8.60
2019-04-27T00:06:27.049Z,8.60
2019-04-27T00:09:00.314Z,8.60
2019-04-27T00:11:37.443Z,8.50
2019-04-27T00:14:04.250Z,8.60
2019-04-27T00:16:36.324Z,8.50
2019-04-27T00:19:23.302Z,8.50
2019-04-27T00:21:56.460Z,8.50
2019-04-27T00:24:25.161Z,8.50
2019-04-27T00:26:54.065Z,8.50
2019-04-27T00:29:23.657Z,8.50
2019-04-27T00:31:53.427Z,8.50
2019-04-27T00:34:26.459Z,8.50
2019-04-27T00:36:56.923Z,8.50
2019-04-27T00:39:27.293Z,8.50
2019-04-27T00:41:57.071Z,8.50
2019-04-27T00:44:26.307Z,8.40
2019-04-27T00:46:55.134Z,8.40
2019-04-27T00:49:23.982Z,8.40
2019-04-27T00:51:53.663Z,8.40
2019-04-27T00:54:23.775Z,8.30
2019-04-27T00:56:54.230Z,8.40
2019-04-27T00:59:36.709Z,8.30
2019-04-27T01:02:16.323Z,8.30
2019-04-27T01:04:44.995Z,8.30
2019-04-27T01:07:14.347Z,8.30
2019-04-27T01:09:43.201Z,8.30
2019-04-27T01:12:13.528Z,8.30
2019-04-27T01:14:42.792Z,8.30
2019-04-27T01:17:12.691Z,8.30
2019-04-27T01:19:41.428Z,8.20
2019-04-27T01:22:10.451Z,8.30
2019-04-27T01:24:39.246Z,8.30
2019-04-27T01:27:21.901Z,8.30
2019-04-27T01:29:51.778Z,8.20
2019-04-27T01:32:20.774Z,8.20
2019-04-27T01:34:53.328Z,8.20
2019-04-27T01:37:24.394Z,8.20
2019-04-27T01:39:53.032Z,8.30
2019-04-27T01:42:21.629Z,8.30
2019-04-27T01:45:00.533Z,8.30
2019-04-27T01:47:29.631Z,8.30
2019-04-27T01:50:00.091Z,8.30
2019-04-27T01:52:35.389Z,8.30
2019-04-27T01:55:05.149Z,8.40
2019-04-27T01:57:48.723Z,8.50
2019-04-27T02:00:33.722Z,8.50
2019-04-27T02:03:10.215Z,8.50
2019-04-27T02:06:00.817Z,8.40
2019-04-27T02:08:40.292Z,8.30
2019-04-27T02:11:10.999Z,8.20
2019-04-27T02:13:42.050Z,8.20
2019-04-27T02:16:14.376Z,8.20
2019-04-27T02:18:48.882Z,8.20
2019-04-27T02:21:22.274Z,8.20
2019-04-27T02:23:57.259Z,8.10
2019-04-27T02:26:30.473Z,8.00
2019-04-27T02:29:06.743Z,8.00
2019-04-27T02:31:53.565Z,7.90
2019-04-27T02:34:23.970Z,7.90
2019-04-27T02:36:52.673Z,7.80
2019-04-27T02:39:24.256Z,7.80
2019-04-27T02:41:55.660Z,7.80
2019-04-27T02:44:31.412Z,7.80
2019-04-27T02:47:04.452Z,7.80
2019-04-27T02:49:33.163Z,7.90
2019-04-27T02:52:09.513Z,7.90
2019-04-27T02:54:40.008Z,7.90
2019-04-27T02:57:10.101Z,7.80
2019-04-27T02:59:39.960Z,7.80
2019-04-27T03:02:26.471Z,7.80
2019-04-27T03:04:55.126Z,7.80
2019-04-27T03:07:24.553Z,7.80
2019-04-27T03:09:53.406Z,7.80
2019-04-27T03:12:23.785Z,7.80
2019-04-27T03:14:56.794Z,7.70
2019-04-27T03:17:36.333Z,7.70
2019-04-27T03:20:20.650Z,7.70
2019-04-27T03:22:57.024Z,7.80
2019-04-27T03:25:31.864Z,7.80
2019-04-27T03:28:00.290Z,7.80
2019-04-27T03:30:35.463Z,7.90
2019-04-27T03:33:03.315Z,7.90
2019-04-27T03:35:36.115Z,8.00
2019-04-27T03:38:02.612Z,8.00
2019-04-27T03:40:31.341Z,8.10
2019-04-27T03:43:04.652Z,8.10
2019-04-27T03:45:33.410Z,8.00
2019-04-27T03:48:03.002Z,8.00
2019-04-27T03:50:40.330Z,7.80
2019-04-27T03:53:23.226Z,7.80
2019-04-27T03:56:10.143Z,7.70
2019-04-27T03:58:43.842Z,7.70
2019-04-27T04:01:12.562Z,7.60
2019-04-27T04:03:41.284Z,7.70
2019-04-27T04:06:10.787Z,7.70
2019-04-27T04:08:40.252Z,7.80
2019-04-27T04:11:10.615Z,7.80
2019-04-27T04:13:46.509Z,7.90
2019-04-27T04:16:16.749Z,7.90
2019-04-27T04:18:49.893Z,7.90
2019-04-27T04:21:19.444Z,7.80
2019-04-27T04:23:49.486Z,7.80
2019-04-27T04:26:19.197Z,7.80
2019-04-27T04:28:50.020Z,7.90
2019-04-27T04:31:20.912Z,7.90
2019-04-27T04:33:49.306Z,7.90
2019-04-27T04:36:20.163Z,7.90
2019-04-27T04:38:50.423Z,7.90
2019-04-27T04:41:26.339Z,8.00
2019-04-27T04:43:56.649Z,8.00
2019-04-27T04:46:29.784Z,8.10
2019-04-27T04:49:00.238Z,8.10
2019-04-27T04:51:30.332Z,8.20
2019-04-27T04:53:59.720Z,8.20
2019-04-27T04:56:29.279Z,8.10
2019-04-27T04:59:00.052Z,8.10
2019-04-27T05:01:29.901Z,8.10
2019-04-27T05:03:59.078Z,8.00
2019-04-27T05:06:29.219Z,8.00
2019-04-27T05:08:59.516Z,8.00
2019-04-27T05:11:29.754Z,8.00
2019-04-27T05:14:01.275Z,7.90
2019-04-27T05:16:29.227Z,7.90
2019-04-27T05:18:59.367Z,7.90
2019-04-27T05:21:32.509Z,7.80
2019-04-27T05:24:01.398Z,7.80
2019-04-27T05:26:30.212Z,7.80
2019-04-27T05:28:59.327Z,7.80
2019-04-27T05:31:29.923Z,7.80
2019-04-27T05:33:59.378Z,7.90
2019-04-27T05:36:29.643Z,8.00
2019-04-27T05:38:59.746Z,8.20
2019-04-27T05:41:31.144Z,8.20
2019-04-27T05:44:03.211Z,8.10
2019-04-27T05:46:35.752Z,8.10
2019-04-27T05:49:06.304Z,8.10
2019-04-27T05:51:37.136Z,8.20
2019-04-27T05:54:05.482Z,8.20
2019-04-27T05:56:34.128Z,8.10
2019-04-27T05:59:02.822Z,8.10
2019-04-27T06:01:31.532Z,8.10
2019-04-27T06:04:00.184Z,8.20
2019-04-27T06:06:29.520Z,8.30
2019-04-27T06:09:00.332Z,8.40
2019-04-27T06:11:29.011Z,8.50
2019-04-27T06:13:59.251Z,8.80
2019-04-27T06:16:29.499Z,9.00
2019-04-27T06:18:59.438Z,9.20
2019-04-27T06:21:29.496Z,9.20
2019-04-27T06:23:58.892Z,9.30
2019-04-27T06:26:29.905Z,9.50
2019-04-27T06:28:59.400Z,9.70
2019-04-27T06:31:29.903Z,9.90
2019-04-27T06:33:59.713Z,9.90
2019-04-27T06:36:28.818Z,10.10
2019-04-27T06:38:58.906Z,10.20
2019-04-27T06:41:29.482Z,10.40
2019-04-27T06:43:59.209Z,10.50
2019-04-27T06:46:28.781Z,10.50
2019-04-27T06:48:59.429Z,10.40
2019-04-27T06:51:40.109Z,10.50
2019-04-27T06:54:09.313Z,10.80
2019-04-27T06:56:45.400Z,11.00
2019-04-27T06:59:14.387Z,10.80
2019-04-27T07:01:43.073Z,10.80
2019-04-27T07:04:12.212Z,10.90
2019-04-27T07:06:53.342Z,11.10
2019-04-27T07:09:15.923Z,11.10
2019-04-27T07:12:03.923Z,11.30
2019-04-27T07:14:33.819Z,11.30
2019-04-27T07:17:02.921Z,11.20
2019-04-27T07:19:33.056Z,11.20
2019-04-27T07:22:01.823Z,11.60
2019-04-27T07:24:30.468Z,11.70
2019-04-27T07:27:00.774Z,12.00
2019-04-27T07:29:32.901Z,12.00
2019-04-27T07:32:05.994Z,12.20
2019-04-27T07:34:38.792Z,12.00
2019-04-27T07:37:07.551Z,12.10
2019-04-27T07:39:39.215Z,12.40
2019-04-27T07:42:08.709Z,12.80
2019-04-27T07:44:56.975Z,13.10
2019-04-27T07:47:27.370Z,13.50
2019-04-27T07:49:56.209Z,13.90
2019-04-27T07:52:28.698Z,14.10
2019-04-27T07:54:58.794Z,14.00
2019-04-27T07:57:28.958Z,14.30
2019-04-27T08:00:01.982Z,14.30
2019-04-27T08:02:30.705Z,14.60
2019-04-27T08:04:59.653Z,14.90
2019-04-27T08:07:29.284Z,14.90
2019-04-27T08:10:01.657Z,14.50
2019-04-27T08:12:30.182Z,14.60
2019-04-27T08:15:01.661Z,14.50
2019-04-27T08:17:32.476Z,14.70
2019-04-27T08:20:01.080Z,15.10
2019-04-27T08:22:31.938Z,15.70
2019-04-27T08:25:00.643Z,15.70
2019-04-27T08:27:31.126Z,15.40
2019-04-27T08:30:09.473Z,15.00
2019-04-27T08:32:42.543Z,15.20
2019-04-27T08:35:12.628Z,16.10
2019-04-27T08:37:46.246Z,16.60
2019-04-27T08:40:22.130Z,16.50
2019-04-27T08:42:55.908Z,16.70
2019-04-27T08:45:25.028Z,16.80
2019-04-27T08:47:53.998Z,17.20
2019-04-27T08:50:22.691Z,17.80
2019-04-27T08:52:51.399Z,17.70
2019-04-27T08:55:30.837Z,18.10
2019-04-27T08:58:01.976Z,18.10
2019-04-27T09:00:35.300Z,17.10
2019-04-27T09:03:04.215Z,15.80
2019-04-27T09:05:36.154Z,15.70
2019-04-27T09:08:21.412Z,14.90
2019-04-27T09:10:59.174Z,14.90
2019-04-27T09:13:45.578Z,16.10
2019-04-27T09:16:35.264Z,17.00
2019-04-27T09:19:11.816Z,18.00
2019-04-27T09:22:12.466Z,18.70
2019-04-27T09:24:32.362Z,17.50
2019-04-27T09:27:01.850Z,17.30
2019-04-27T09:29:31.232Z,17.60
2019-04-27T09:32:01.843Z,18.70
2019-04-27T09:34:32.790Z,19.00
2019-04-27T09:37:01.684Z,18.00
2019-04-27T09:39:30.707Z,17.00
2019-04-27T09:42:00.886Z,16.60
2019-04-27T09:44:36.912Z,16.10
2019-04-27T09:47:08.836Z,15.10
2019-04-27T09:49:38.482Z,15.30
2019-04-27T09:52:08.457Z,16.80
2019-04-27T09:54:44.381Z,17.10
2019-04-27T09:57:16.039Z,16.40
2019-04-27T09:59:49.903Z,16.20
2019-04-27T10:02:19.899Z,15.60
2019-04-27T10:04:54.181Z,15.10
2019-04-27T10:07:26.926Z,15.30
2019-04-27T10:09:57.146Z,15.10
2019-04-27T10:12:27.480Z,14.70
2019-04-27T10:15:02.193Z,14.30
2019-04-27T10:17:30.899Z,14.90
2019-04-27T10:20:00.147Z,15.80
2019-04-27T10:22:40.453Z,17.20
2019-04-27T10:25:00.727Z,17.80
2019-04-27T10:27:33.325Z,17.70
2019-04-27T10:30:05.807Z,16.70
2019-04-27T10:32:37.490Z,15.40
2019-04-27T10:35:08.938Z,14.50
2019-04-27T10:37:37.690Z,14.10
2019-04-27T10:40:06.704Z,13.80
2019-04-27T10:42:37.593Z,13.90
2019-04-27T10:45:08.410Z,14.00
2019-04-27T10:47:37.043Z,13.90
2019-04-27T10:50:09.539Z,13.80
2019-04-27T10:52:52.424Z,13.60
2019-04-27T10:55:10.559Z,13.30
2019-04-27T10:57:48.882Z,13.40
2019-04-27T11:00:21.233Z,13.60
2019-04-27T11:02:49.989Z,13.70
2019-04-27T11:05:22.850Z,13.40
2019-04-27T11:07:52.733Z,13.50
2019-04-27T11:10:21.504Z,13.40
2019-04-27T11:12:53.395Z,13.30
2019-04-27T11:15:26.395Z,13.30
2019-04-27T11:17:56.660Z,13.40
2019-04-27T11:20:29.703Z,13.30
2019-04-27T11:23:09.300Z,13.10
2019-04-27T11:25:36.442Z,12.90
2019-04-27T11:28:06.623Z,12.90
2019-04-27T11:30:38.531Z,13.00
2019-04-27T11:33:10.094Z,13.00
2019-04-27T11:35:40.464Z,12.70
2019-04-27T11:38:09.363Z,12.60
2019-04-27T11:40:42.260Z,12.30
2019-04-27T11:43:17.925Z,12.20
2019-04-27T11:45:46.748Z,12.00
2019-04-27T11:48:21.047Z,11.60
2019-04-27T11:50:51.266Z,11.40
2019-04-27T11:53:23.188Z,11.40
2019-04-27T11:55:50.345Z,11.50
2019-04-27T11:58:19.727Z,11.50
2019-04-27T12:00:51.243Z,11.60
2019-04-27T12:03:20.339Z,11.80
2019-04-27T12:05:59.525Z,12.10
2019-04-27T12:08:26.807Z,12.30
2019-04-27T12:13:37.994Z,12.80
2019-04-27T12:16:17.646Z,12.90
2019-04-27T12:18:48.867Z,12.70
2019-04-27T12:21:16.741Z,12.90
2019-04-27T12:23:48.416Z,12.80
2019-04-27T12:26:30.589Z,12.80
2019-04-27T12:29:01.192Z,12.80
2019-04-27T12:31:33.703Z,12.80
2019-04-27T12:34:02.842Z,12.50
2019-04-27T12:36:31.513Z,12.30
2019-04-27T12:39:03.505Z,12.10
2019-04-27T12:41:32.147Z,11.90
2019-04-27T12:44:00.889Z,11.90
2019-04-27T12:46:32.425Z,12.00
2019-04-27T12:49:01.180Z,11.90
2019-04-27T12:51:29.895Z,12.00
2019-04-27T12:54:00.221Z,12.10
2019-04-27T12:56:33.434Z,12.00
2019-04-27T12:59:04.175Z,11.90
2019-04-27T13:01:38.856Z,11.80
2019-04-27T13:04:16.809Z,12.00
2019-04-27T13:06:47.038Z,11.80
2019-04-27T13:09:17.365Z,11.90
2019-04-27T13:11:46.393Z,11.90
2019-04-27T13:14:19.238Z,11.60
2019-04-27T13:17:02.004Z,11.50
2019-04-27T13:19:20.282Z,11.40
2019-04-27T13:21:49.153Z,11.30
2019-04-27T13:24:17.791Z,11.30
2019-04-27T13:26:46.545Z,11.30
2019-04-27T13:29:18.237Z,11.20
2019-04-27T13:31:47.093Z,11.30
2019-04-27T13:34:15.936Z,11.40
2019-04-27T13:36:47.572Z,11.40
2019-04-27T13:39:16.686Z,11.40
2019-04-27T13:41:46.292Z,11.30
2019-04-27T13:44:19.796Z,11.40
2019-04-27T13:47:09.773Z,11.40
2019-04-27T13:49:56.686Z,11.20
2019-04-27T13:52:29.881Z,11.20
2019-04-27T13:54:59.705Z,11.10
2019-04-27T13:57:28.501Z,11.10
2019-04-27T13:59:57.246Z,11.10
2019-04-27T14:02:32.227Z,11.10
2019-04-27T14:04:57.763Z,11.10
2019-04-27T14:07:29.589Z,11.20
2019-04-27T14:10:01.370Z,11.10
2019-04-27T14:12:30.213Z,11.10
2019-04-27T14:15:01.416Z,11.10
2019-04-27T14:17:32.341Z,11.20
2019-04-27T14:20:01.144Z,11.20
2019-04-27T14:22:58.280Z,11.30
2019-04-27T14:25:25.846Z,11.20
2019-04-27T14:28:04.121Z,11.20
2019-04-27T14:30:32.821Z,11.40
2019-04-27T14:33:10.242Z,11.50
2019-04-27T14:35:40.323Z,11.40
2019-04-27T14:38:10.499Z,11.30
2019-04-27T14:40:41.826Z,11.40
2019-04-27T14:43:10.671Z,11.30
2019-04-27T14:45:39.746Z,11.10
2019-04-27T14:48:08.547Z,11.00
2019-04-27T14:50:40.512Z,10.90
2019-04-27T14:53:09.410Z,10.90
2019-04-27T14:55:40.161Z,10.90
2019-04-27T14:58:11.704Z,10.90
2019-04-27T15:00:40.801Z,10.80
2019-04-27T15:03:14.840Z,10.90
2019-04-27T15:05:43.681Z,10.90
2019-04-27T15:08:13.976Z,10.90
2019-04-27T15:10:46.457Z,11.00
2019-04-27T15:13:15.295Z,10.90
2019-04-27T15:15:44.251Z,10.60
2019-04-27T15:18:13.416Z,10.10
2019-04-27T15:20:46.548Z,9.80
2019-04-27T15:23:15.765Z,9.60
2019-04-27T15:25:47.432Z,9.50
2019-04-27T15:28:22.729Z,9.40
2019-04-27T15:30:53.288Z,9.30
2019-04-27T15:33:35.905Z,9.40
2019-04-27T15:36:22.855Z,9.30
2019-04-27T15:38:56.073Z,9.30
2019-04-27T15:41:45.723Z,9.30
2019-04-27T15:44:18.761Z,9.30
2019-04-27T15:46:47.984Z,9.20
2019-04-27T15:49:17.910Z,9.30
2019-04-27T15:51:50.626Z,9.40
2019-04-27T15:54:22.424Z,9.40
2019-04-27T15:56:52.390Z,9.40
2019-04-27T15:59:23.818Z,9.40
2019-04-27T16:01:57.752Z,9.40
2019-04-27T16:04:26.678Z,9.40
2019-04-27T16:07:00.535Z,9.50
2019-04-27T16:09:29.748Z,9.50
2019-04-27T16:12:12.621Z,9.50
2019-04-27T16:14:44.032Z,9.60
2019-04-27T16:17:11.888Z,9.70
2019-04-27T16:19:46.658Z,9.60
2019-04-27T16:22:12.279Z,9.50
2019-04-27T16:24:41.279Z,9.50
2019-04-27T16:27:13.225Z,9.30
2019-04-27T16:29:43.827Z,9.10
2019-04-27T16:32:14.151Z,9.00
2019-04-27T16:34:44.636Z,9.00
2019-04-27T16:37:22.449Z,8.70
2019-04-27T16:39:49.576Z,8.60
2019-04-27T16:42:18.926Z,8.50
2019-04-27T16:44:49.470Z,8.60
2019-04-27T16:47:24.531Z,8.70
2019-04-27T16:49:58.595Z,8.80
2019-04-27T16:52:31.300Z,8.90
2019-04-27T16:55:03.774Z,8.90
2019-04-27T16:57:40.031Z,8.90
2019-04-27T17:00:18.177Z,8.90
2019-04-27T17:02:59.201Z,8.80
2019-04-27T17:05:34.464Z,8.70
2019-04-27T17:08:21.419Z,8.60
2019-04-27T17:10:48.328Z,8.60
2019-04-27T17:13:35.213Z,8.50
2019-04-27T17:16:05.619Z,8.40
2019-04-27T17:18:41.078Z,8.40
2019-04-27T17:21:18.896Z,8.30
2019-04-27T17:23:45.534Z,8.20
2019-04-27T17:26:24.339Z,8.30
2019-04-27T17:29:20.492Z,8.20
2019-04-27T17:31:54.995Z,8.30
2019-04-27T17:34:34.646Z,8.40
2019-04-27T17:37:03.666Z,8.40
2019-04-27T17:39:38.555Z,8.40
2019-04-27T17:42:08.910Z,8.40
2019-04-27T17:44:39.349Z,8.30
2019-04-27T17:47:10.652Z,8.40
2019-04-27T17:49:39.498Z,8.20
2019-04-27T17:52:17.210Z,8.20
2019-04-27T17:54:47.433Z,8.20
2019-04-27T17:57:18.019Z,8.10
2019-04-27T17:59:58.392Z,8.10
2019-04-27T18:02:21.312Z,8.10
2019-04-27T18:04:52.813Z,8.10
2019-04-27T18:07:22.123Z,8.10
2019-04-27T18:09:51.380Z,8.00
2019-04-27T18:12:29.157Z,8.00
2019-04-27T18:14:59.636Z,8.10
2019-04-27T18:17:29.766Z,8.10
2019-04-27T18:20:11.802Z,8.00
2019-04-27T18:22:57.981Z,8.00
2019-04-27T18:25:30.602Z,7.90
2019-04-27T18:28:14.701Z,7.80
2019-04-27T18:30:49.197Z,7.80
2019-04-27T18:33:28.355Z,7.70
2019-04-27T18:36:05.012Z,7.60
2019-04-27T18:38:39.222Z,7.60
2019-04-27T18:41:11.966Z,7.60
2019-04-27T18:43:54.809Z,7.70
2019-04-27T18:46:24.439Z,7.60
2019-04-27T18:48:58.451Z,7.60
2019-04-27T18:51:29.696Z,7.60
2019-04-27T18:54:02.281Z,7.60
2019-04-27T18:56:33.311Z,7.60
2019-04-27T18:59:18.833Z,7.50
2019-04-27T19:01:38.941Z,7.60
2019-04-27T19:04:14.258Z,7.60
2019-04-27T19:06:46.250Z,7.40
2019-04-27T19:09:19.766Z,7.40
2019-04-27T19:11:56.027Z,7.40
2019-04-27T19:14:19.335Z,7.40
2019-04-27T19:16:49.876Z,7.50
2019-04-27T19:19:21.651Z,7.40
2019-04-27T19:21:53.594Z,7.40
2019-04-27T19:24:22.266Z,7.40
2019-04-27T19:26:52.748Z,7.40
2019-04-27T19:29:25.849Z,7.40
2019-04-27T19:32:02.038Z,7.40
2019-04-27T19:34:33.792Z,7.40
2019-04-27T19:37:08.125Z,7.30
2019-04-27T19:39:39.331Z,7.30
2019-04-27T19:42:10.870Z,7.40
2019-04-27T19:44:41.783Z,7.40
2019-04-27T19:47:12.672Z,7.40
2019-04-27T19:49:43.166Z,7.40
2019-04-27T19:52:22.659Z,7.40
2019-04-27T19:54:53.537Z,7.40
2019-04-27T19:57:34.930Z,7.40
2019-04-27T20:00:03.268Z,7.40
2019-04-27T20:02:33.269Z,7.40
2019-04-27T20:05:03.944Z,7.30
2019-04-27T20:07:33.338Z,7.40
2019-04-27T20:10:02.311Z,7.40
2019-04-27T20:12:34.351Z,7.40
2019-04-27T20:15:05.839Z,7.40
2019-04-27T20:17:36.154Z,7.40
2019-04-27T20:20:05.833Z,7.40
2019-04-27T20:22:37.350Z,7.40
2019-04-27T20:25:08.279Z,7.40
2019-04-27T20:27:46.059Z,7.50
2019-04-27T20:30:11.126Z,7.50
2019-04-27T20:32:42.975Z,7.40
2019-04-27T20:35:12.797Z,7.40
2019-04-27T20:37:41.861Z,7.40
2019-04-27T20:40:15.242Z,7.40
2019-04-27T20:42:48.259Z,7.20
2019-04-27T20:45:22.862Z,7.20
2019-04-27T20:48:01.041Z,7.20
2019-04-27T20:50:28.543Z,7.20
2019-04-27T20:53:01.583Z,7.30
2019-04-27T20:55:35.438Z,7.20
2019-04-27T20:58:11.200Z,7.20
2019-04-27T21:00:48.123Z,7.20
2019-04-27T21:03:33.289Z,7.20
2019-04-27T21:06:06.147Z,7.10
2019-04-27T21:08:38.240Z,7.10
2019-04-27T21:11:06.889Z,7.10
2019-04-27T21:13:41.657Z,7.10
2019-04-27T21:16:15.201Z,7.10
2019-04-27T21:18:47.755Z,7.10
2019-04-27T21:21:26.859Z,7.00
2019-04-27T21:23:59.383Z,7.00
2019-04-27T21:26:29.561Z,6.90
2019-04-27T21:28:59.248Z,6.90
2019-04-27T21:31:31.644Z,6.90
2019-04-27T21:34:01.713Z,6.90
2019-04-27T21:36:30.995Z,7.00
2019-04-27T21:39:24.324Z,6.90
2019-04-27T21:41:54.656Z,6.90
2019-04-27T21:44:33.597Z,6.90
2019-04-27T21:47:02.306Z,6.90
2019-04-27T21:49:32.714Z,6.90
2019-04-27T21:52:14.391Z,6.90
2019-04-27T21:54:44.756Z,6.90
2019-04-27T21:57:14.308Z,6.90
2019-04-27T21:59:43.582Z,6.90
2019-04-27T22:02:14.099Z,6.90
2019-04-27T22:04:51.815Z,6.90
2019-04-27T22:07:25.794Z,6.90
2019-04-27T22:09:57.527Z,6.80
2019-04-27T22:12:27.723Z,6.80
2019-04-27T22:14:58.600Z,6.80
2019-04-27T22:17:34.172Z,6.80
2019-04-27T22:20:05.404Z,6.80
2019-04-27T22:22:41.398Z,6.80
2019-04-27T22:25:12.157Z,6.80
2019-04-27T22:27:45.250Z,6.90
2019-04-27T22:30:15.478Z,6.80
2019-04-27T22:32:47.129Z,6.80
2019-04-27T22:35:15.882Z,6.80
2019-04-27T22:37:44.524Z,6.80
2019-04-27T22:40:34.466Z,6.80
2019-04-27T22:43:09.064Z,6.80
2019-04-27T22:45:42.222Z,6.90
2019-04-27T22:48:12.658Z,6.90
2019-04-27T22:50:44.084Z,6.90
2019-04-27T22:53:12.794Z,6.90
2019-04-27T22:55:59.500Z,6.90
2019-04-27T22:58:28.289Z,7.00
2019-04-27T23:01:07.735Z,6.90
2019-04-27T23:03:38.159Z,6.80
2019-04-27T23:06:06.898Z,6.80
2019-04-27T23:08:35.626Z,6.80
2019-04-27T23:11:07.661Z,6.80
2019-04-27T23:13:36.372Z,6.80
2019-04-27T23:16:06.768Z,6.80
2019-04-27T23:18:35.545Z,6.80
2019-04-27T23:21:04.643Z,6.80
2019-04-27T23:23:33.390Z,6.70
2019-04-27T23:26:06.507Z,6.70
2019-04-27T23:28:35.263Z,6.70
2019-04-27T23:31:08.347Z,6.60
2019-04-27T23:33:43.070Z,6.70
2019-04-27T23:36:11.947Z,6.70
2019-04-27T23:38:40.919Z,6.70
2019-04-27T23:41:09.536Z,6.70
2019-04-27T23:43:38.259Z,6.60
2019-04-27T23:46:07.271Z,6.60
2019-04-27T23:48:38.665Z,6.50
2019-04-27T23:51:27.879Z,6.60
2019-04-27T23:53:59.324Z,6.50
2019-04-27T23:56:28.043Z,6.60
2019-04-27T23:58:56.775Z,6.60
